Terminal Aerodrome Forecast
Issued by NWS Cleveland, OH

Home | Current Version | Previous Version | Graphics & Text | Print | Product List | Glossary On
Versions: 1 2 3 4 5 6 7 8 9 10 11 12 13 14 15 16 17 18 19 20 21 22 23
489
FTUS41 KCLE 211403 AAB
TAFCAK
TAF AMD
KCAK 211403Z 2114/2212 15006KT 5SM BR SCT050 BKN250
     FM211500 17008KT 6SM BR BKN025
     FM211700 19010KT P6SM BKN035
     FM220300 16004KT 4SM BR OVC050=

USA.gov is the U.S. government's official web portal to all federal, state and local government web resources and services.